Time;durP1;ratioP1;P1;durP2;ratioP2;P2;SDS_P1;SDS_P2;PMS_P1;PMS_P2;Temp;Humidity;BMP_temperature;BMP_pressure;BME280_temperature;BME280_humidity;BME280_pressure;Samples;Min_cycle;Max_cycle;Signal;HPM_P1;HPM_P2
2023/03/06 00:01:53;;;;;;;7.07;2.23;;;3.70;97.70;;;2.77;75.81;100010.22;5053080;28;20563;-73
2023/03/06 00:04:24;;;;;;;4.63;2.20;;;3.70;97.70;;;2.76;75.39;100004.09;5053299;28;20230;-72
2023/03/06 00:06:57;;;;;;;4.30;2.30;;;3.70;97.60;;;2.80;75.77;100002.03;5052957;28;20595;-72
2023/03/06 00:09:29;;;;;;;6.77;2.63;;;3.80;97.70;;;2.76;75.56;100008.56;5052977;28;20198;-72
2023/03/06 00:12:02;;;;;;;7.03;3.17;;;3.70;97.60;;;2.77;75.55;100000.50;5053255;28;20190;-73
2023/03/06 00:14:34;;;;;;;11.77;3.80;;;3.80;97.70;;;2.72;76.05;99997.41;5052758;28;20722;-72
2023/03/06 00:17:06;;;;;;;19.60;6.00;;;3.70;97.60;;;2.73;75.75;99998.25;5052847;28;20563;-73
2023/03/06 00:19:37;;;;;;;27.57;6.97;;;3.70;97.70;;;2.72;75.63;99991.25;5052897;28;20198;-73
2023/03/06 00:22:12;;;;;;;33.37;10.10;;;3.70;97.70;;;2.72;75.58;99991.25;5053183;28;20198;-73
2023/03/06 00:24:45;;;;;;;38.00;11.13;;;3.70;97.60;;;2.74;75.46;99989.34;5053090;28;20232;-73
2023/03/06 00:27:18;;;;;;;38.53;11.60;;;3.70;97.60;;;2.73;75.80;99988.50;5053141;28;20191;-74
2023/03/06 00:29:53;;;;;;;34.77;12.30;;;3.70;97.60;;;2.72;75.85;99985.97;5052784;28;20190;-74
2023/03/06 00:32:26;;;;;;;37.80;12.87;;;3.70;97.60;;;2.70;75.61;99988.78;5053015;28;20193;-73
2023/03/06 00:34:59;;;;;;;37.50;12.57;;;3.70;97.60;;;2.70;76.33;99982.63;5053122;28;20721;-73
2023/03/06 00:37:30;;;;;;;33.37;11.87;;;3.70;97.70;;;2.70;76.12;99985.28;5053069;28;20218;-73
2023/03/06 00:40:04;;;;;;;23.97;7.73;;;3.60;97.70;;;2.69;75.71;99981.78;5052734;28;20198;-73
2023/03/06 00:42:38;;;;;;;20.87;7.30;;;3.70;97.70;;;2.69;75.90;99980.94;5052946;28;20191;-72
2023/03/06 00:45:12;;;;;;;23.43;6.00;;;3.70;97.80;;;2.71;75.89;99977.22;5052997;28;20186;-73
2023/03/06 00:47:45;;;;;;;21.37;6.07;;;3.70;97.80;;;2.70;75.59;99977.34;5052919;28;20196;-72
2023/03/06 00:50:15;;;;;;;24.37;7.30;;;3.70;97.80;;;2.70;76.16;99966.78;5052933;28;20207;-73
2023/03/06 00:52:47;;;;;;;28.63;7.80;;;3.70;97.90;;;2.69;76.11;99973.03;5052819;28;20289;-73
2023/03/06 00:55:19;;;;;;;26.53;7.10;;;3.70;97.80;;;2.73;75.82;99963.88;5052631;28;20676;-73
2023/03/06 00:57:52;;;;;;;21.50;6.13;;;3.70;97.90;;;2.70;76.61;99962.34;5052530;28;20689;-72
2023/03/06 01:00:25;;;;;;;13.43;4.67;;;3.70;97.90;;;2.72;75.81;99964.84;5052808;28;20191;-72
2023/03/06 01:02:57;;;;;;;16.37;4.40;;;3.70;98.00;;;2.71;76.32;99955.22;5052445;28;20230;-73
2023/03/06 01:05:29;;;;;;;11.77;4.40;;;3.70;98.00;;;2.72;75.67;99964.84;5053084;28;20202;-73
2023/03/06 01:08:01;;;;;;;13.70;4.30;;;3.70;97.90;;;2.71;76.21;99948.13;5056336;28;20186;-73
2023/03/06 01:10:33;;;;;;;17.00;5.23;;;3.70;97.90;;;2.69;76.18;99949.25;5056280;28;20186;-72
2023/03/06 01:13:10;;;;;;;20.03;5.57;;;3.70;98.10;;;2.67;76.17;99943.25;5055835;28;20230;-72
2023/03/06 01:15:43;;;;;;;17.33;4.97;;;3.60;98.00;;;2.69;76.24;99946.59;5055896;28;20225;-73
2023/03/06 01:18:15;;;;;;;20.57;5.33;;;3.70;98.20;;;2.67;76.18;99943.25;5055743;28;20678;-72
2023/03/06 01:20:47;;;;;;;14.10;4.53;;;3.60;98.00;;;2.66;76.50;99933.66;5056140;28;20191;-72
2023/03/06 01:23:19;;;;;;;13.90;4.63;;;3.70;98.50;;;2.65;76.54;99937.25;5055956;28;20233;-72
2023/03/06 01:25:51;;;;;;;16.40;5.07;;;3.60;98.20;;;2.62;76.53;99937.50;5055981;28;20194;-72
2023/03/06 01:28:24;;;;;;;15.90;5.33;;;3.60;98.20;;;2.61;76.94;99930.53;5055941;28;20209;-73
2023/03/06 01:30:57;;;;;;;21.67;5.80;;;3.60;98.30;;;2.62;76.54;99930.44;5055621;28;20563;-73
2023/03/06 01:33:29;;;;;;;17.77;5.80;;;3.60;98.20;;;2.61;77.42;99930.53;5055804;28;20225;-73
2023/03/06 01:36:03;;;;;;;14.63;4.83;;;3.60;98.30;;;2.62;76.77;99927.78;5055843;28;20190;-72
2023/03/06 01:38:36;;;;;;;14.17;4.70;;;3.60;98.30;;;2.60;76.63;99918.31;5055660;28;20221;-72
2023/03/06 01:41:14;;;;;;;22.40;5.97;;;3.60;98.30;;;2.61;76.89;99925.25;5055404;28;20545;-72
2023/03/06 01:43:49;;;;;;;20.10;5.80;;;3.60;98.30;;;2.59;76.39;99921.91;5055539;28;20230;-74
2023/03/06 01:46:40;;;;;;;17.60;6.00;;;3.60;98.30;;;2.60;76.73;99929.72;5055308;28;20554;-72
2023/03/06 01:49:21;;;;;;;20.77;6.40;;;3.60;98.40;;;2.57;77.08;99921.22;5055625;28;20190;-73
2023/03/06 01:52:00;;;;;;;28.57;6.60;;;3.60;98.50;;;2.57;77.14;99929.97;5055542;28;20236;-73
2023/03/06 01:54:39;;;;;;;18.37;6.03;;;3.50;98.50;;;2.57;77.27;99914.09;5055090;28;20651;-73
2023/03/06 01:57:19;;;;;;;19.40;5.63;;;3.50;98.50;;;2.57;77.41;99918.59;5055133;28;20195;-73
2023/03/06 01:59:58;;;;;;;17.87;5.27;;;3.50;98.50;;;2.57;77.27;99921.22;5055304;28;20222;-73
2023/03/06 02:02:30;;;;;;;14.20;5.07;;;3.50;98.50;;;2.57;77.59;99913.28;5055299;28;20191;-72
2023/03/06 02:05:05;;;;;;;8.90;4.00;;;3.60;98.60;;;2.54;77.37;99912.56;5055832;28;20290;-72
2023/03/06 02:07:38;;;;;;;9.73;4.47;;;3.50;98.60;;;2.57;77.95;99914.09;5055188;28;20190;-73
2023/03/06 02:10:12;;;;;;;8.60;3.60;;;3.60;98.80;;;2.52;77.20;99909.22;5055143;28;20182;-74
2023/03/06 02:12:45;;;;;;;6.83;3.17;;;3.50;98.80;;;2.58;77.88;99904.38;5055029;28;20198;-72
2023/03/06 02:15:23;;;;;;;7.40;3.80;;;3.50;99.20;;;2.54;77.64;99903.81;5054868;28;20241;-73
2023/03/06 02:17:56;;;;;;;8.70;3.70;;;3.50;98.80;;;2.53;77.67;99902.97;5054961;28;20190;-73
2023/03/06 02:20:39;;;;;;;18.67;5.37;;;3.50;98.80;;;2.50;78.20;99903.22;5055271;28;20214;-73
2023/03/06 02:23:23;;;;;;;13.87;4.93;;;3.50;98.90;;;2.51;77.84;99899.63;5054561;28;20709;-73
2023/03/06 02:25:59;;;;;;;16.93;5.00;;;3.60;99.40;;;2.51;78.01;99894.34;5054872;28;20197;-73
2023/03/06 02:28:31;;;;;;;19.30;6.07;;;3.50;98.90;;;2.52;77.92;99893.38;5054811;28;20196;-73
2023/03/06 02:31:03;;;;;;;17.10;5.60;;;3.60;99.40;;;2.51;77.84;99890.84;5054761;28;20194;-72
2023/03/06 02:33:35;;;;;;;14.83;5.47;;;3.50;98.90;;;2.50;77.80;99892.66;5054413;28;20706;-73
2023/03/06 02:36:13;;;;;;;19.63;5.97;;;3.50;98.90;;;2.49;78.14;99892.81;5054344;28;20555;-73
2023/03/06 02:38:50;;;;;;;28.53;8.43;;;3.50;99.00;;;2.48;78.14;99889.31;5054564;28;20551;-73
2023/03/06 02:41:24;;;;;;;25.33;8.03;;;3.50;99.00;;;2.51;nan;99882.94;5054278;28;20627;-73
2023/03/06 02:43:56;;;;;;;26.63;7.70;;;3.50;99.00;;;2.50;77.43;99883.91;5054485;28;20234;-74
2023/03/06 02:46:30;;;;;;;26.37;7.17;;;3.50;98.90;;;2.48;78.08;99878.75;5054520;28;20218;-74
2023/03/06 02:49:03;;;;;;;25.60;7.23;;;3.50;99.00;;;2.45;78.53;99873.72;5054455;28;20268;-73
2023/03/06 02:51:34;;;;;;;24.70;7.37;;;3.50;99.10;;;2.47;78.36;99876.22;5054406;28;20190;-74
2023/03/06 02:54:06;;;;;;;25.27;6.97;;;3.50;99.10;;;2.46;78.43;99871.94;5054283;28;20226;-73
2023/03/06 02:56:39;;;;;;;20.07;5.90;;;3.50;99.20;;;2.48;78.30;99878.75;5053993;28;20667;-74
2023/03/06 02:59:12;;;;;;;15.83;5.87;;;3.50;99.10;;;2.50;78.27;99871.53;5054190;28;20215;-73
2023/03/06 03:01:43;;;;;;;17.80;5.90;;;3.50;99.10;;;2.48;78.09;99867.34;5054275;28;20195;-73
2023/03/06 03:04:15;;;;;;;18.60;6.67;;;3.50;99.10;;;2.45;78.10;99867.59;5054089;28;20233;-73
2023/03/06 03:06:50;;;;;;;21.13;6.67;;;3.50;99.10;;;2.46;78.21;99858.72;5054161;28;20276;-73
2023/03/06 03:09:22;;;;;;;21.70;7.13;;;3.40;99.20;;;2.45;78.69;99855.22;5053799;28;20650;-74
2023/03/06 03:11:55;;;;;;;18.07;6.47;;;3.50;99.20;;;2.45;78.00;99855.22;5053698;28;20540;-74
2023/03/06 03:14:28;;;;;;;20.73;6.77;;;3.50;99.20;;;2.44;78.35;99856.19;5053502;28;20233;-73
2023/03/06 03:17:00;;;;;;;18.90;6.30;;;3.50;99.30;;;2.41;78.04;99855.63;5053571;28;20671;-73
2023/03/06 03:19:32;;;;;;;12.07;5.10;;;3.40;99.30;;;2.44;78.95;99850.06;5053843;28;20210;-73
2023/03/06 03:22:04;;;;;;;13.50;4.87;;;3.40;99.80;;;2.41;78.08;99851.19;5053839;28;20194;-74
2023/03/06 03:24:36;;;;;;;9.50;4.80;;;3.40;99.30;;;2.40;78.65;99848.66;5053784;28;20221;-73
2023/03/06 03:27:09;;;;;;;10.27;4.50;;;3.40;99.40;;;2.42;78.61;99846.72;5053453;28;20229;-73
2023/03/06 03:29:41;;;;;;;8.70;4.27;;;3.40;99.30;;;2.38;78.42;99840.88;5052830;28;20658;-73
2023/03/06 03:32:13;;;;;;;8.00;3.80;;;3.40;99.30;;;2.39;78.60;99842.56;5053572;28;20201;-73
2023/03/06 03:34:45;;;;;;;7.50;4.13;;;3.40;99.30;;;2.37;78.38;99833.91;5053230;28;20710;-73
2023/03/06 03:37:18;;;;;;;8.50;3.97;;;3.40;99.30;;;2.39;78.42;99841.72;5053156;28;20191;-73
2023/03/06 03:39:50;;;;;;;4.97;3.53;;;3.40;99.30;;;2.38;78.71;99838.22;5053460;28;20233;-73
2023/03/06 03:42:23;;;;;;;6.70;3.63;;;3.40;99.30;;;2.38;78.62;99838.22;5053552;28;20200;-71
2023/03/06 03:44:55;;;;;;;6.97;3.73;;;3.40;99.30;;;2.38;78.81;99834.75;5053286;28;20226;-75
2023/03/06 03:47:27;;;;;;;7.27;4.07;;;3.40;99.30;;;2.38;78.57;99829.47;5053562;28;20198;-75
2023/03/06 03:49:59;;;;;;;7.23;3.50;;;3.40;99.80;;;2.37;78.24;99839.19;5053448;28;20194;-77
2023/03/06 03:52:31;;;;;;;5.23;3.70;;;3.40;99.70;;;2.42;78.43;99823.81;5052323;28;20210;-75
2023/03/06 03:55:03;;;;;;;8.13;3.70;;;3.40;99.30;;;2.39;78.46;99818.78;5053071;28;20584;-75
2023/03/06 03:57:38;;;;;;;4.57;3.40;;;3.40;99.20;;;2.38;78.21;99822.38;5053431;28;20201;-75
2023/03/06 04:00:15;;;;;;;8.10;4.03;;;3.40;99.20;;;2.39;78.12;99821.44;5053006;28;20229;-75
2023/03/06 04:02:47;;;;;;;6.60;3.43;;;3.40;99.40;;;2.35;78.41;99814.72;5053317;28;20206;-75
2023/03/06 04:05:20;;;;;;;6.00;3.70;;;3.40;99.40;;;2.35;78.39;99809.44;5053581;28;20194;-77
2023/03/06 04:07:51;;;;;;;6.30;3.63;;;3.40;99.40;;;2.36;78.77;99811.09;5052944;28;20532;-75
2023/03/06 04:10:23;;;;;;;6.53;3.60;;;3.40;99.50;;;2.34;78.85;99799.84;5053342;28;20191;-75
2023/03/06 04:12:57;;;;;;;6.80;3.70;;;3.30;99.40;;;2.36;79.03;99811.09;5052872;28;20564;-75
2023/03/06 04:15:28;;;;;;;6.17;3.63;;;3.30;99.50;;;2.34;78.97;99802.47;5052977;28;20222;-75
2023/03/06 04:18:00;;;;;;;6.70;3.40;;;3.30;99.60;;;2.31;78.77;99805.38;5052935;28;20199;-75
2023/03/06 04:20:32;;;;;;;5.60;3.70;;;3.40;99.60;;;2.31;79.12;99797.47;5053150;28;20301;-75
2023/03/06 04:23:04;;;;;;;7.60;4.13;;;3.30;99.70;;;2.34;79.03;99797.19;5053113;28;20226;-75
2023/03/06 04:25:36;;;;;;;6.33;3.27;;;3.40;99.50;;;2.41;78.86;99786.94;5053259;28;20197;-75
2023/03/06 04:28:10;;;;;;;5.83;3.10;;;3.40;99.60;;;2.41;79.13;99800.97;5053733;28;20198;-75
2023/03/06 04:30:43;;;;;;;5.73;3.40;;;3.40;99.50;;;2.43;78.91;99785.81;5052775;28;20657;-75
2023/03/06 04:33:14;;;;;;;6.80;3.60;;;3.40;99.50;;;2.44;78.77;99794.59;5053011;28;20593;-75
2023/03/06 04:35:46;;;;;;;5.93;3.70;;;3.50;99.60;;;2.45;78.97;99788.34;5053051;28;20198;-75
2023/03/06 04:38:18;;;;;;;9.57;3.83;;;3.40;99.60;;;2.43;79.59;99787.66;5053013;28;20194;-75
2023/03/06 04:40:49;;;;;;;7.60;4.17;;;3.40;99.90;;;2.46;80.12;99790.88;5053785;28;20328;-75
2023/03/06 04:43:23;;;;;;;6.47;4.43;;;3.50;99.90;;;2.44;80.83;99787.50;5056465;28;20230;-75
2023/03/06 04:45:55;;;;;;;6.53;4.43;;;3.40;99.90;;;2.45;80.62;99783.91;5056774;28;20269;-75
2023/03/06 04:48:27;;;;;;;8.67;4.07;;;3.40;99.90;;;2.40;81.30;99779.97;5056748;28;20612;-75
2023/03/06 04:50:58;;;;;;;9.57;4.10;;;3.40;99.90;;;2.42;81.16;99778.06;5056396;28;20194;-75
2023/03/06 04:53:31;;;;;;;8.60;4.13;;;3.40;99.90;;;2.43;81.00;99777.91;5056617;28;20226;-75
2023/03/06 04:56:03;;;;;;;9.13;4.20;;;3.40;99.90;;;2.45;80.75;99773.34;5056671;28;20195;-76
2023/03/06 04:58:36;;;;;;;8.30;4.23;;;3.40;99.90;;;2.44;81.46;99776.09;5056580;28;20194;-75
2023/03/06 05:01:10;;;;;;;6.30;4.13;;;3.40;99.90;;;2.45;81.78;99775.16;5056535;28;20214;-75
2023/03/06 05:03:42;;;;;;;8.00;4.30;;;3.40;99.90;;;2.38;82.61;99769.56;5056459;28;20230;-75
2023/03/06 05:06:14;;;;;;;7.10;4.37;;;3.30;99.90;;;2.38;82.38;99761.63;5056510;28;20190;-76
2023/03/06 05:08:46;;;;;;;7.07;4.20;;;3.30;99.90;;;2.39;82.55;99773.88;5056503;28;20186;-75
2023/03/06 05:11:18;;;;;;;6.67;4.60;;;3.30;99.90;;;2.36;82.92;99776.75;5056026;28;20635;-75
2023/03/06 05:13:51;;;;;;;7.40;4.40;;;3.30;99.90;;;2.38;82.70;99772.19;5056167;28;20597;-75
2023/03/06 05:16:23;;;;;;;7.70;4.20;;;3.40;99.90;;;2.36;83.26;99776.75;5055821;28;20229;-75
2023/03/06 05:18:55;;;;;;;6.33;4.40;;;3.30;99.90;;;2.35;83.62;99777.75;5056254;28;20191;-75
2023/03/06 05:21:27;;;;;;;6.27;4.43;;;3.30;99.90;;;2.35;83.92;99772.47;5056008;28;20210;-75
2023/03/06 05:23:59;;;;;;;5.60;3.93;;;3.30;99.90;;;2.32;83.86;99764.81;5055763;28;20704;-75
2023/03/06 05:26:31;;;;;;;7.57;4.40;;;3.30;99.90;;;2.30;83.92;99763.25;5055738;28;20193;-75
2023/03/06 05:29:05;;;;;;;5.07;3.90;;;3.30;99.90;;;2.29;84.26;99767.72;5055736;28;20647;-75
2023/03/06 05:31:37;;;;;;;5.77;3.70;;;3.30;99.90;;;2.29;84.17;99767.72;5055685;28;20643;-75
2023/03/06 05:34:09;;;;;;;5.63;4.10;;;3.20;99.90;;;2.28;84.73;99765.19;5055459;28;20676;-75
2023/03/06 05:36:41;;;;;;;6.80;3.70;;;3.20;99.90;;;2.29;84.04;99761.59;5055611;28;20657;-75
2023/03/06 05:39:13;;;;;;;5.63;3.83;;;3.30;99.90;;;2.25;84.58;99758.38;5055765;28;20190;-75
2023/03/06 05:41:45;;;;;;;6.20;3.50;;;3.20;99.90;;;2.29;83.97;99765.06;5055724;28;20214;-75
2023/03/06 05:44:18;;;;;;;6.10;3.87;;;3.20;99.90;;;2.29;83.90;99765.06;5055655;28;20230;-75
2023/03/06 05:46:51;;;;;;;5.00;3.87;;;3.20;99.90;;;2.24;84.65;99758.50;5055612;28;20186;-75
2023/03/06 05:49:23;;;;;;;4.73;3.60;;;3.20;99.90;;;2.23;84.20;99760.28;5055429;28;20187;-75
2023/03/06 05:51:54;;;;;;;7.43;4.10;;;3.20;99.90;;;2.26;84.18;99757.38;5055029;28;20190;-75
2023/03/06 05:54:26;;;;;;;5.83;3.80;;;3.20;99.90;;;2.28;84.24;99750.19;5055018;28;20230;-75
2023/03/06 05:56:58;;;;;;;4.80;3.23;;;3.20;99.90;;;2.26;83.75;99757.38;5055055;28;20654;-75
2023/03/06 05:59:32;;;;;;;6.30;3.60;;;3.20;99.90;;;2.19;84.19;99761.56;5055337;28;20197;-75
2023/03/06 06:02:04;;;;;;;5.13;3.70;;;3.20;99.90;;;2.22;84.01;99756.00;5055006;28;20679;-75
2023/03/06 06:04:36;;;;;;;5.10;3.13;;;3.10;99.90;;;2.13;84.31;99751.47;5055159;28;20240;-75
2023/03/06 06:07:12;;;;;;;3.87;3.47;;;3.10;99.90;;;2.14;84.61;99761.09;5055149;28;20191;-75
2023/03/06 06:09:45;;;;;;;4.50;3.60;;;3.10;99.90;;;2.14;83.92;99761.09;5055115;28;20197;-75
2023/03/06 06:12:17;;;;;;;5.37;3.37;;;3.10;99.90;;;2.11;84.38;99753.44;5055161;28;20193;-75
2023/03/06 06:14:50;;;;;;;6.37;3.80;;;3.10;99.90;;;2.11;84.34;99755.22;5054703;28;20238;-75
2023/03/06 06:17:22;;;;;;;5.77;3.50;;;3.10;99.90;;;2.12;84.36;99755.13;5055011;28;20191;-75
2023/03/06 06:19:54;;;;;;;4.47;3.53;;;3.10;99.90;;;2.13;84.32;99750.66;5054996;28;20200;-75
2023/03/06 06:22:26;;;;;;;3.90;3.50;;;3.00;99.90;;;2.09;84.33;99750.06;5054805;28;20210;-75
2023/03/06 06:24:58;;;;;;;4.43;3.70;;;3.10;99.90;;;2.07;84.67;99751.16;5054742;28;20230;-75
2023/03/06 06:27:30;;;;;;;3.87;3.47;;;3.00;99.90;;;2.01;85.20;99755.19;5054894;28;20191;-75
2023/03/06 06:30:03;;;;;;;3.70;3.10;;;2.90;99.90;;;2.01;84.94;99758.66;5054420;28;20300;-75
2023/03/06 06:32:35;;;;;;;5.10;3.30;;;3.00;99.90;;;2.04;84.69;99757.56;5054304;28;20281;-75
2023/03/06 06:35:09;;;;;;;5.30;3.70;;;3.00;99.90;;;1.88;84.69;99754.56;5054406;28;20196;-75
2023/03/06 06:37:43;;;;;;;4.67;3.67;;;2.90;99.90;;;1.93;85.34;99754.97;5054658;28;20190;-75
2023/03/06 06:40:23;;;;;;;5.50;3.97;;;2.90;99.90;;;1.95;85.21;99756.53;5054410;28;20205;-75
2023/03/06 06:43:02;;;;;;;6.00;3.93;;;2.90;99.90;;;1.94;85.23;99756.66;5055288;28;20226;-75
2023/03/06 06:45:41;;;;;;;3.57;3.10;;;2.80;99.90;;;1.79;85.63;99753.50;5054240;28;20639;-75
2023/03/06 06:48:20;;;;;;;4.50;3.47;;;2.80;99.90;;;1.87;85.38;99744.94;5054489;28;20194;-75
2023/03/06 06:50:58;;;;;;;3.20;2.90;;;2.80;99.90;;;1.88;84.90;99746.63;5054074;28;20222;-75
2023/03/06 06:53:30;;;;;;;2.70;2.50;;;2.80;99.90;;;1.80;84.90;99747.28;5054284;28;20253;-75
2023/03/06 06:56:24;;;;;;;2.77;2.53;;;2.80;99.90;;;1.81;85.22;99748.13;5040372;28;20195;-75
2023/03/06 06:59:00;;;;;;;3.57;2.73;;;2.70;99.90;;;1.76;85.50;99752.94;5054305;28;20190;-76
2023/03/06 07:01:50;;;;;;;3.03;2.30;;;2.70;99.90;;;1.83;85.50;99759.38;5053958;28;20222;-76
2023/03/06 07:04:32;;;;;;;3.20;2.50;;;2.80;99.90;;;1.86;84.94;99757.31;5053310;28;20225;-74
2023/03/06 07:07:07;;;;;;;3.30;2.30;;;2.80;99.90;;;1.89;84.96;99756.19;5053882;28;20628;-75
2023/03/06 07:09:42;;;;;;;4.57;2.57;;;2.80;99.90;;;1.88;84.93;99752.72;5053758;28;20194;-75
2023/03/06 07:12:14;;;;;;;2.30;2.10;;;2.80;99.90;;;1.84;84.69;99756.59;5053762;28;20658;-76
2023/03/06 07:14:47;;;;;;;2.20;1.97;;;2.80;99.90;;;1.88;84.62;99751.91;5053736;28;20244;-75
2023/03/06 07:17:20;;;;;;;2.57;2.27;;;2.80;99.90;;;1.87;84.81;99750.22;5053948;28;20194;-75
2023/03/06 07:19:52;;;;;;;2.87;1.80;;;2.80;99.90;;;1.90;84.27;99755.25;5053943;28;20201;-75
2023/03/06 07:22:24;;;;;;;2.20;1.90;;;2.80;99.90;;;1.89;83.76;99756.19;5053768;28;20582;-75
2023/03/06 07:24:55;;;;;;;2.33;2.13;;;2.90;99.90;;;1.90;84.15;99757.88;5053678;28;20237;-75
2023/03/06 07:27:29;;;;;;;1.80;1.60;;;2.80;99.90;;;1.90;84.83;99760.53;5053742;28;20213;-76
2023/03/06 07:30:01;;;;;;;3.30;1.70;;;2.80;99.90;;;1.88;84.24;99741.34;5053724;28;20263;-76
2023/03/06 07:32:34;;;;;;;2.00;1.50;;;2.80;99.90;;;1.87;83.53;99751.06;5053693;28;20186;-75
2023/03/06 07:35:07;;;;;;;2.07;1.43;;;2.80;99.90;;;1.87;84.39;99752.88;5053771;28;20191;-75
2023/03/06 07:37:51;;;;;;;1.80;1.70;;;2.80;99.90;;;1.83;84.61;99760.22;5053440;28;20194;-76
2023/03/06 07:40:24;;;;;;;2.00;1.90;;;2.80;99.90;;;1.82;84.60;99768.25;5053679;28;20191;-76
2023/03/06 07:42:58;;;;;;;2.90;1.90;;;2.80;99.90;;;1.81;84.68;99762.16;5053406;28;20259;-75
2023/03/06 07:45:55;;;;;;;3.53;2.00;;;2.80;99.90;;;1.80;85.16;99765.75;5053566;28;20264;-76
2023/03/06 07:48:28;;;;;;;2.93;1.67;;;2.70;99.90;;;1.70;84.82;99762.19;5053257;28;20182;-76
2023/03/06 07:51:02;;;;;;;3.63;1.60;;;2.70;99.90;;;1.66;84.95;99765.22;5053192;28;20194;-75
2023/03/06 07:53:35;;;;;;;1.43;1.33;;;2.60;99.90;;;1.69;85.06;99765.78;5053105;28;20636;-75
2023/03/06 07:56:10;;;;;;;4.07;1.60;;;2.60;99.90;;;1.71;84.68;99755.97;5053460;28;20190;-75
2023/03/06 07:58:44;;;;;;;3.50;1.63;;;2.70;99.90;;;1.74;84.72;99755.72;5053425;28;20574;-75
2023/03/06 08:01:19;;;;;;;4.87;1.80;;;2.70;99.90;;;1.71;85.00;99763.03;5053316;28;20252;-75
2023/03/06 08:03:54;;;;;;;2.03;1.30;;;2.60;99.90;;;1.73;84.50;99764.59;5053029;28;20680;-75
2023/03/06 08:06:28;;;;;;;1.73;1.40;;;2.70;99.90;;;1.71;84.27;99763.03;5053418;28;20195;-76
2023/03/06 08:09:01;;;;;;;5.47;1.80;;;2.70;99.90;;;1.70;85.52;99769.28;5053389;28;20245;-75
2023/03/06 08:11:33;;;;;;;3.90;1.80;;;2.60;99.90;;;1.70;84.90;99764.00;5053398;28;20190;-75
2023/03/06 08:14:05;;;;;;;1.63;1.53;;;2.60;99.90;;;1.67;85.30;99765.09;5053386;28;20237;-75
2023/03/06 08:16:37;;;;;;;2.57;1.60;;;2.60;99.90;;;1.63;84.83;99765.47;5057289;28;20190;-76
2023/03/06 08:19:12;;;;;;;3.50;1.93;;;2.60;99.90;;;1.55;85.72;99774.00;5060950;28;20190;-75
2023/03/06 08:21:44;;;;;;;2.53;1.83;;;2.50;99.90;;;1.60;85.74;99771.00;5062689;28;20220;-76
2023/03/06 08:24:18;;;;;;;3.83;1.80;;;2.50;99.90;;;1.67;85.80;99775.66;5062001;28;20229;-76
2023/03/06 08:26:49;;;;;;;2.93;1.93;;;2.60;99.90;;;1.72;85.93;99772.59;5062403;28;20200;-76
2023/03/06 08:29:21;;;;;;;1.70;1.60;;;2.70;99.90;;;1.65;85.33;99768.81;5061539;28;20576;-75
2023/03/06 08:31:53;;;;;;;4.00;1.80;;;2.60;99.90;;;1.70;85.28;99778.03;5060774;28;20186;-76
2023/03/06 08:34:28;;;;;;;2.07;1.70;;;2.60;99.90;;;1.68;85.77;99781.78;5056719;28;20712;-76
2023/03/06 08:36:59;;;;;;;2.37;1.60;;;2.70;99.90;;;1.70;85.43;99774.56;5056826;28;20638;-66
2023/03/06 08:39:31;;;;;;;2.97;1.70;;;2.70;99.90;;;1.72;85.58;99777.88;5056546;28;20666;-66
2023/03/06 08:42:03;;;;;;;3.30;1.80;;;2.70;99.90;;;1.79;85.47;99779.91;5056475;28;20225;-77
2023/03/06 08:44:35;;;;;;;1.77;1.50;;;2.80;99.90;;;1.81;85.38;99787.69;5056735;28;20233;-77
2023/03/06 08:47:07;;;;;;;1.73;1.57;;;2.80;99.90;;;1.80;85.19;99786.00;5056824;28;20194;-76
2023/03/06 08:49:40;;;;;;;2.50;1.50;;;2.70;99.90;;;1.80;84.77;99789.50;5056768;28;20554;-76
2023/03/06 08:52:13;;;;;;;1.63;1.53;;;2.70;99.90;;;1.71;85.24;99784.16;5057515;28;20559;-77
2023/03/06 08:54:45;;;;;;;3.47;1.80;;;2.60;99.90;;;1.66;85.07;99786.31;5057266;28;20242;-77
2023/03/06 08:57:17;;;;;;;1.90;1.70;;;2.60;99.90;;;1.62;85.92;99792.81;5056352;28;20281;-77
2023/03/06 08:59:49;;;;;;;4.03;1.90;;;2.60;99.90;;;1.67;85.28;99786.22;5056591;28;20194;-75
2023/03/06 09:02:21;;;;;;;3.67;2.33;;;2.60;99.90;;;1.69;85.04;99792.19;5056458;28;20206;-77
2023/03/06 09:04:54;;;;;;;2.30;2.10;;;2.70;99.90;;;1.70;85.79;99787.75;5056239;28;20226;-77
2023/03/06 09:07:26;;;;;;;6.97;2.70;;;2.70;99.90;;;1.71;85.50;99786.78;5056442;28;20252;-77
2023/03/06 09:10:01;;;;;;;3.00;2.27;;;2.60;99.90;;;1.73;85.50;99780.41;5056391;28;20193;-77
2023/03/06 09:12:32;;;;;;;4.43;2.30;;;2.70;99.90;;;1.71;85.57;99789.44;5056337;28;20201;-77
2023/03/06 09:15:22;;;;;;;3.53;2.90;;;2.70;99.90;;;1.60;85.99;99795.59;5055975;28;20218;-76
2023/03/06 09:17:54;;;;;;;3.60;3.20;;;2.60;99.90;;;1.64;86.09;99801.44;5056782;28;20236;-76
2023/03/06 09:20:27;;;;;;;6.27;3.50;;;2.60;99.90;;;1.67;85.88;99801.19;5056178;28;20230;-76
2023/03/06 09:22:59;;;;;;;5.10;3.23;;;2.60;99.90;;;1.69;85.65;99807.16;5055939;28;20230;-76
2023/03/06 09:25:31;;;;;;;3.90;3.50;;;2.60;99.90;;;1.68;85.45;99806.31;5056089;28;20198;-76
2023/03/06 09:28:03;;;;;;;4.10;3.70;;;2.60;99.90;;;1.68;85.67;99802.88;5055169;28;20194;-76
2023/03/06 09:30:44;;;;;;;3.97;3.30;;;2.60;99.90;;;1.65;85.90;99803.94;5055944;28;20206;-77
2023/03/06 09:33:17;;;;;;;6.27;3.10;;;2.60;99.90;;;1.68;85.22;99813.44;5056032;28;20233;-77
2023/03/06 09:35:54;;;;;;;3.70;2.80;;;2.60;99.90;;;1.66;86.03;99810.91;5055598;28;20567;-77
2023/03/06 09:38:28;;;;;;;3.50;2.77;;;2.60;99.90;;;1.66;85.59;99810.06;5055786;28;20197;-77
2023/03/06 09:41:11;;;;;;;4.00;3.00;;;2.60;99.90;;;1.68;85.25;99810.78;5055777;28;20193;-77
2023/03/06 09:43:47;;;;;;;3.67;2.50;;;2.60;99.90;;;1.64;85.37;99812.84;5055558;28;20240;-76
2023/03/06 09:46:29;;;;;;;4.07;2.63;;;2.60;99.90;;;1.59;86.15;99803.63;5055705;28;20202;-77
2023/03/06 09:49:16;;;;;;;4.27;2.20;;;2.50;99.90;;;1.52;85.99;99812.03;5055668;28;20226;-77
2023/03/06 09:52:00;;;;;;;4.70;2.60;;;2.50;99.90;;;1.47;85.91;99811.56;5055761;28;20198;-76
2023/03/06 09:54:44;;;;;;;3.13;2.00;;;2.50;99.90;;;1.45;86.58;99808.22;5055506;28;20229;-76
2023/03/06 09:57:26;;;;;;;2.47;2.07;;;2.40;99.90;;;1.48;86.23;99815.88;5055502;28;20190;-76
2023/03/06 10:00:05;;;;;;;3.20;2.27;;;2.40;99.90;;;1.51;86.16;99807.72;5055428;28;20191;-76
2023/03/06 10:02:45;;;;;;;5.50;2.20;;;2.50;99.90;;;1.47;86.22;99808.94;5054916;28;20670;-76
2023/03/06 10:05:23;;;;;;;5.03;2.37;;;2.50;99.90;;;1.55;85.94;99810.94;5055345;28;20182;-76
2023/03/06 10:08:05;;;;;;;2.53;1.83;;;2.50;99.90;;;1.42;85.54;99810.28;5054972;28;20190;-76
2023/03/06 10:10:46;;;;;;;2.53;2.03;;;2.50;99.90;;;1.46;86.48;99807.28;5055215;28;20190;-76
2023/03/06 10:13:30;;;;;;;2.90;2.07;;;2.40;99.90;;;1.47;86.39;99808.94;5055105;28;20232;-75
2023/03/06 10:16:09;;;;;;;4.13;2.23;;;2.40;99.90;;;1.48;85.91;99802.69;5054675;28;20214;-76
2023/03/06 10:18:42;;;;;;;4.13;2.00;;;2.50;99.90;;;1.55;86.17;99803.03;5054701;28;20195;-76
2023/03/06 10:21:33;;;;;;;2.33;2.10;;;2.50;99.90;;;1.58;85.96;99804.56;5054993;28;20202;-76
2023/03/06 10:24:19;;;;;;;2.17;1.80;;;2.60;99.90;;;1.50;85.91;99808.69;5054812;28;20234;-76
2023/03/06 10:27:04;;;;;;;3.17;1.80;;;2.50;99.90;;;1.56;86.00;99803.88;5054890;28;20190;-75
2023/03/06 10:29:47;;;;;;;1.50;1.40;;;2.50;99.90;;;1.35;85.84;99806.47;5054477;28;20277;-75
2023/03/06 10:32:46;;;;;;;2.03;1.50;;;2.30;99.90;;;1.37;86.19;99804.56;5054755;28;20249;-75
2023/03/06 10:35:27;;;;;;;1.40;1.30;;;2.30;99.90;;;1.29;86.36;99802.53;5054752;28;20201;-76
2023/03/06 10:38:12;;;;;;;2.73;1.70;;;2.30;99.90;;;1.19;86.20;99796.34;5054323;28;20623;-76
2023/03/06 10:40:54;;;;;;;2.90;1.70;;;2.20;99.90;;;1.22;86.68;99795.25;5054621;28;20193;-76
2023/03/06 10:43:27;;;;;;;1.97;1.40;;;2.20;99.90;;;1.33;86.75;99795.22;5054457;28;20238;-76
2023/03/06 10:45:59;;;;;;;1.83;1.67;;;2.30;99.90;;;1.34;85.68;99797.72;5054507;28;20209;-76
2023/03/06 10:48:34;;;;;;;3.03;1.90;;;2.30;99.90;;;1.36;85.94;99800.22;5054469;28;20564;-76
2023/03/06 10:51:19;;;;;;;4.17;1.83;;;2.30;99.90;;;1.42;85.99;99802.38;5054432;28;20190;-76
2023/03/06 10:53:55;;;;;;;1.87;1.70;;;2.40;99.90;;;1.47;86.64;99801.00;5054311;28;20314;-76
2023/03/06 10:56:32;;;;;;;2.27;2.00;;;2.50;99.90;;;1.50;85.80;99794.66;5054378;28;20194;-76
2023/03/06 10:59:08;;;;;;;4.03;2.70;;;2.50;99.90;;;1.56;86.24;99799.44;5054288;28;20194;-76
2023/03/06 11:01:42;;;;;;;5.00;3.70;;;2.50;99.90;;;1.43;85.81;99789.06;5054270;28;20190;-75